Terminal Aerodrome Forecast
Issued by NWS

Home | Current Version | Previous Version | Text Only | Print | Product List | Glossary On
Versions: 1 2 3 4 5 6 7 8 9 10 11 12 13 14 15 16 17 18 19 20 21 22 23 24 25 26 27
000
FTUS41 KCAR 270500 RRA
TAFBHB
TAF
KBHB 270549Z 2706/2806 21007KT 6SM BR FEW001
     FM271800 21009KT P6SM VCTS SCT050CB
     FM280200 25004KT 2SM BR SCT003 BKN090
      AMD LTD TO CLD VIS AND WIND=

USA.gov is the U.S. government's official web portal to all federal, state and local government web resources and services.